createdAt,value
2018-05-09T00:00:42.951Z,20.52
2018-05-09T00:01:43.004Z,20.47
2018-05-09T00:02:42.985Z,20.44
2018-05-09T00:03:43.025Z,20.48
2018-05-09T00:04:43.052Z,20.52
2018-05-09T00:05:42.784Z,20.51
2018-05-09T00:06:43.184Z,20.44
2018-05-09T00:07:43.118Z,20.5
2018-05-09T00:08:42.842Z,20.44
2018-05-09T00:09:43.159Z,20.41
2018-05-09T00:10:43.192Z,20.39
2018-05-09T00:11:43.189Z,20.43
2018-05-09T00:12:43.222Z,20.44
2018-05-09T00:13:42.955Z,20.39
2018-05-09T00:14:43.276Z,20.43
2018-05-09T00:15:43.303Z,20.34
2018-05-09T00:16:43.027Z,20.4
2018-05-09T00:17:43.043Z,20.25
2018-05-09T00:18:43.359Z,20.28
2018-05-09T00:19:43.375Z,20.26
2018-05-09T00:20:43.128Z,20.19
2018-05-09T00:21:43.140Z,20.24
2018-05-09T00:22:43.460Z,20.28
2018-05-09T00:23:43.191Z,20.29
2018-05-09T00:24:43.493Z,20.25
2018-05-09T00:25:43.517Z,20.28
2018-05-09T00:26:43.552Z,20.14
2018-05-09T00:27:43.558Z,20.16
2018-05-09T00:28:43.291Z,20.21
2018-05-09T00:29:43.602Z,20.18
2018-05-09T00:30:43.639Z,20.16
2018-05-09T00:31:43.649Z,20.13
2018-05-09T00:32:43.393Z,20.14
2018-05-09T00:33:43.402Z,20.11
2018-05-09T00:34:43.429Z,20.06
2018-05-09T00:35:43.447Z,20.04
2018-05-09T00:36:43.811Z,20.04
2018-05-09T00:37:43.793Z,20.03
2018-05-09T00:38:43.810Z,20.03
2018-05-09T00:39:43.557Z,20
2018-05-09T00:40:43.842Z,19.96
2018-05-09T00:41:43.373Z,19.94
2018-05-09T00:42:43.620Z,19.96
2018-05-09T00:43:43.917Z,19.94
2018-05-09T00:44:43.945Z,19.92
2018-05-09T00:45:43.970Z,19.85
2018-05-09T00:46:43.690Z,19.92
2018-05-09T00:47:43.735Z,19.88
2018-05-09T00:48:44.042Z,19.84
2018-05-09T00:49:44.061Z,19.82
2018-05-09T00:50:43.797Z,19.82
2018-05-09T00:51:44.104Z,19.77
2018-05-09T00:52:44.099Z,19.82
2018-05-09T00:53:43.852Z,19.81
2018-05-09T00:54:43.602Z,19.76
2018-05-09T00:55:43.915Z,19.84
2018-05-09T00:56:44.209Z,19.82
2018-05-09T00:57:43.665Z,19.73
2018-05-09T00:58:44.262Z,19.73
2018-05-09T00:59:43.995Z,19.71
2018-05-09T01:00:44.309Z,19.7
2018-05-09T01:01:44.327Z,19.67
2018-05-09T01:02:44.374Z,19.63
2018-05-09T01:03:44.079Z,19.69
2018-05-09T01:04:44.392Z,19.62
2018-05-09T01:05:44.411Z,19.69
2018-05-09T01:06:44.160Z,19.66
2018-05-09T01:07:44.466Z,19.67
2018-05-09T01:08:44.476Z,19.63
2018-05-09T01:09:44.499Z,19.62
2018-05-09T01:10:44.528Z,19.58
2018-05-09T01:11:43.975Z,19.49
2018-05-09T01:12:44.570Z,19.47
2018-05-09T01:13:44.692Z,19.52
2018-05-09T01:14:44.602Z,19.52
2018-05-09T01:15:44.341Z,19.4
2018-05-09T01:16:44.382Z,19.55
2018-05-09T01:17:44.413Z,19.59
2018-05-09T01:18:44.689Z,19.52
2018-05-09T01:19:44.736Z,19.54
2018-05-09T01:20:44.746Z,19.55
2018-05-09T01:21:44.776Z,19.44
2018-05-09T01:22:44.820Z,19.39
2018-05-09T01:23:44.536Z,19.34
2018-05-09T01:24:44.567Z,19.37
2018-05-09T01:25:44.567Z,19.36
2018-05-09T01:26:44.589Z,19.41
2018-05-09T01:27:44.628Z,19.36
2018-05-09T01:28:44.916Z,19.34
2018-05-09T01:29:44.384Z,19.33
2018-05-09T01:30:44.672Z,19.27
2018-05-09T01:31:45.006Z,19.24
2018-05-09T01:32:44.767Z,19.33
2018-05-09T01:33:45.055Z,19.27
2018-05-09T01:34:44.768Z,19.27
2018-05-09T01:35:45.091Z,19.18
2018-05-09T01:36:45.110Z,19.19
2018-05-09T01:37:45.128Z,19.19
2018-05-09T01:38:44.865Z,19.22
2018-05-09T01:39:45.448Z,19.16
2018-05-09T01:40:44.900Z,19.16
2018-05-09T01:41:45.226Z,19.15
2018-05-09T01:42:45.005Z,19.14
2018-05-09T01:43:45.502Z,19.14
2018-05-09T01:44:45.667Z,19.14
2018-05-09T01:45:45.376Z,19.11
2018-05-09T01:46:45.705Z,19.11
2018-05-09T01:47:45.353Z,19.04
2018-05-09T01:48:45.697Z,19.07
2018-05-09T01:49:45.384Z,18.93
2018-05-09T01:50:45.745Z,18.93
2018-05-09T01:51:45.807Z,18.93
2018-05-09T01:52:45.504Z,19.11
2018-05-09T01:53:45.457Z,18.92
2018-05-09T01:54:45.502Z,18.96
2018-05-09T01:55:45.516Z,18.99
2018-05-09T01:56:45.549Z,18.92
2018-05-09T01:57:45.283Z,18.93
2018-05-09T01:58:45.317Z,18.95
2018-05-09T01:59:45.599Z,18.93
2018-05-09T02:00:45.360Z,18.92
2018-05-09T02:01:45.635Z,18.92
2018-05-09T02:02:45.673Z,18.92
2018-05-09T02:03:45.678Z,18.93
2018-05-09T02:04:45.703Z,18.9
2018-05-09T02:05:45.755Z,18.9
2018-05-09T02:06:45.485Z,18.86
2018-05-09T02:07:45.812Z,18.93
2018-05-09T02:08:45.514Z,18.88
2018-05-09T02:09:45.529Z,18.86
2018-05-09T02:10:45.558Z,18.74
2018-05-09T02:11:45.870Z,18.77
2018-05-09T02:12:45.603Z,18.8
2018-05-09T02:13:45.988Z,18.77
2018-05-09T02:14:45.662Z,18.75
2018-05-09T02:15:45.959Z,18.77
2018-05-09T02:16:45.975Z,18.75
2018-05-09T02:17:46.317Z,18.75
2018-05-09T02:18:45.720Z,18.66
2018-05-09T02:19:45.473Z,18.65
2018-05-09T02:20:46.040Z,18.66
2018-05-09T02:21:46.082Z,18.7
2018-05-09T02:22:45.603Z,18.71
2018-05-09T02:23:46.143Z,18.73
2018-05-09T02:24:46.131Z,18.6
2018-05-09T02:25:46.172Z,18.65
2018-05-09T02:26:45.891Z,18.71
2018-05-09T02:27:45.664Z,18.58
2018-05-09T02:28:46.248Z,18.59
2018-05-09T02:29:46.250Z,18.62
2018-05-09T02:30:46.366Z,18.58
2018-05-09T02:31:46.310Z,18.5
2018-05-09T02:32:46.102Z,18.58
2018-05-09T02:33:46.422Z,18.56
2018-05-09T02:34:46.388Z,18.56
2018-05-09T02:35:46.427Z,18.5
2018-05-09T02:36:46.407Z,18.52
2018-05-09T02:37:46.164Z,18.53
2018-05-09T02:38:46.461Z,18.5
2018-05-09T02:39:46.187Z,18.47
2018-05-09T02:40:46.236Z,18.49
2018-05-09T02:41:46.244Z,18.47
2018-05-09T02:42:46.312Z,18.35
2018-05-09T02:43:46.733Z,18.4
2018-05-09T02:44:46.326Z,18.37
2018-05-09T02:45:46.607Z,18.41
2018-05-09T02:46:46.333Z,18.44
2018-05-09T02:47:46.661Z,18.28
2018-05-09T02:48:46.691Z,18.34
2018-05-09T02:49:46.444Z,18.34
2018-05-09T02:50:46.411Z,18.26
2018-05-09T02:51:46.712Z,18.31
2018-05-09T02:52:46.752Z,18.34
2018-05-09T02:53:46.786Z,18.31
2018-05-09T02:54:46.859Z,18.31
2018-05-09T02:55:46.814Z,18.34
2018-05-09T02:56:46.842Z,18.33
2018-05-09T02:57:46.954Z,18.22
2018-05-09T02:58:46.889Z,18.23
2018-05-09T02:59:46.892Z,18.29
2018-05-09T03:00:46.909Z,18.19
2018-05-09T03:01:46.940Z,18.22
2018-05-09T03:02:46.964Z,18.13
2018-05-09T03:03:47.001Z,18.19
2018-05-09T03:04:46.725Z,18.16
2018-05-09T03:05:47.035Z,18.16
2018-05-09T03:06:47.053Z,18.15
2018-05-09T03:07:47.067Z,18.15
2018-05-09T03:08:47.096Z,18.1
2018-05-09T03:09:47.112Z,18.22
2018-05-09T03:10:46.868Z,18.1
2018-05-09T03:11:47.171Z,18.07
2018-05-09T03:12:47.198Z,18.08
2018-05-09T03:13:47.194Z,18.05
2018-05-09T03:14:47.226Z,18.1
2018-05-09T03:15:47.246Z,18.05
2018-05-09T03:16:47.270Z,18.03
2018-05-09T03:17:47.278Z,18.08
2018-05-09T03:18:46.745Z,17.98
2018-05-09T03:19:47.318Z,18.04
2018-05-09T03:20:47.045Z,18.08
2018-05-09T03:21:47.370Z,18.01
2018-05-09T03:22:47.424Z,18.05
2018-05-09T03:23:47.421Z,18
2018-05-09T03:24:47.131Z,17.98
2018-05-09T03:25:47.432Z,18
2018-05-09T03:26:47.190Z,18.04
2018-05-09T03:27:47.551Z,18.04
2018-05-09T03:28:47.497Z,17.97
2018-05-09T03:29:47.369Z,17.98
2018-05-09T03:30:47.544Z,17.9
2018-05-09T03:31:47.556Z,17.89
2018-05-09T03:32:47.312Z,17.9
2018-05-09T03:33:47.326Z,17.87
2018-05-09T03:34:47.070Z,17.9
2018-05-09T03:35:47.385Z,18.03
2018-05-09T03:36:47.394Z,17.87
2018-05-09T03:37:47.684Z,17.86
2018-05-09T03:38:47.439Z,17.87
2018-05-09T03:39:47.543Z,17.9
2018-05-09T03:40:47.748Z,17.83
2018-05-09T03:41:47.764Z,17.83
2018-05-09T03:42:47.520Z,17.82
2018-05-09T03:43:47.561Z,17.82
2018-05-09T03:44:47.832Z,17.71
2018-05-09T03:45:47.886Z,17.79
2018-05-09T03:46:47.331Z,17.79
2018-05-09T03:47:47.946Z,17.83
2018-05-09T03:48:47.937Z,17.8
2018-05-09T03:49:47.954Z,17.74
2018-05-09T03:50:47.981Z,17.71
2018-05-09T03:51:48.009Z,17.74
2018-05-09T03:52:47.737Z,17.74
2018-05-09T03:53:47.458Z,17.7
2018-05-09T03:54:48.076Z,17.7
2018-05-09T03:55:48.080Z,17.72
2018-05-09T03:56:48.110Z,17.6
2018-05-09T03:57:48.160Z,17.7
2018-05-09T03:58:48.123Z,17.76
2018-05-09T03:59:47.869Z,17.74
2018-05-09T04:00:47.896Z,17.68
2018-05-09T04:01:48.196Z,17.71
2018-05-09T04:02:47.931Z,17.67
2018-05-09T04:03:48.237Z,17.65
2018-05-09T04:04:48.256Z,17.65
2018-05-09T04:05:48.303Z,17.67
2018-05-09T04:06:48.315Z,17.64
2018-05-09T04:07:48.035Z,17.68
2018-05-09T04:08:48.352Z,17.67
2018-05-09T04:09:48.367Z,17.65
2018-05-09T04:10:48.412Z,17.57
2018-05-09T04:11:48.408Z,17.63
2018-05-09T04:12:48.151Z,17.59
2018-05-09T04:13:48.166Z,17.63
2018-05-09T04:14:48.719Z,17.6
2018-05-09T04:15:48.492Z,17.63
2018-05-09T04:16:48.519Z,17.56
2018-05-09T04:17:48.525Z,17.54
2018-05-09T04:18:48.551Z,17.59
2018-05-09T04:19:48.567Z,17.57
2018-05-09T04:20:48.934Z,17.57
2018-05-09T04:21:48.623Z,17.63
2018-05-09T04:22:48.688Z,17.54
2018-05-09T04:23:48.362Z,17.56
2018-05-09T04:24:48.684Z,17.56
2018-05-09T04:25:48.412Z,17.56
2018-05-09T04:26:48.706Z,17.57
2018-05-09T04:27:48.756Z,17.57
2018-05-09T04:28:48.777Z,17.51
2018-05-09T04:29:48.770Z,17.57
2018-05-09T04:30:48.789Z,17.54
2018-05-09T04:31:48.814Z,17.51
2018-05-09T04:32:48.900Z,17.48
2018-05-09T04:33:48.864Z,17.48
2018-05-09T04:34:48.594Z,17.59
2018-05-09T04:39:29.327Z,17.6
2018-05-09T04:40:29.348Z,17.57
2018-05-09T04:41:29.367Z,17.54
2018-05-09T04:42:28.847Z,17.49
2018-05-09T04:43:29.412Z,17.49
2018-05-09T04:44:28.898Z,17.49
2018-05-09T04:45:29.478Z,17.51
2018-05-09T04:46:29.207Z,17.54
2018-05-09T04:47:29.226Z,17.56
2018-05-09T04:48:29.253Z,17.54
2018-05-09T04:49:29.319Z,17.57
2018-05-09T04:50:29.571Z,17.52
2018-05-09T04:51:29.649Z,17.54
2018-05-09T04:52:29.325Z,17.57
2018-05-09T04:53:29.644Z,17.49
2018-05-09T04:54:29.382Z,17.49
2018-05-09T04:55:29.959Z,17.52
2018-05-09T04:56:29.682Z,17.57
2018-05-09T04:57:29.693Z,17.56
2018-05-09T04:58:29.449Z,17.56
2018-05-09T04:59:29.747Z,17.48
2018-05-09T05:00:29.512Z,17.54
2018-05-09T05:01:29.537Z,17.49
2018-05-09T05:02:29.833Z,17.51
2018-05-09T05:03:29.917Z,17.49
2018-05-09T05:04:29.871Z,17.49
2018-05-09T05:05:29.594Z,17.52
2018-05-09T05:06:29.890Z,17.51
2018-05-09T05:07:29.642Z,17.54
2018-05-09T05:08:29.960Z,17.57
2018-05-09T05:09:29.978Z,17.57
2018-05-09T05:10:29.994Z,17.51
2018-05-09T05:11:29.997Z,17.51
2018-05-09T05:12:30.045Z,17.54
2018-05-09T05:13:30.046Z,17.59
2018-05-09T05:14:30.070Z,17.59
2018-05-09T05:15:30.080Z,17.49
2018-05-09T05:16:30.097Z,17.52
2018-05-09T05:17:30.130Z,17.48
2018-05-09T05:18:30.150Z,17.51
2018-05-09T05:19:29.877Z,17.57
2018-05-09T05:20:30.190Z,17.49
2018-05-09T05:21:29.940Z,17.51
2018-05-09T05:22:30.240Z,17.64
2018-05-09T05:23:30.238Z,17.57
2018-05-09T05:24:30.263Z,17.57
2018-05-09T05:25:30.296Z,17.54
2018-05-09T05:26:30.290Z,17.52
2018-05-09T05:27:30.337Z,17.54
2018-05-09T05:28:30.345Z,17.59
2018-05-09T05:29:30.352Z,17.57
2018-05-09T05:30:29.840Z,17.6
2018-05-09T05:31:30.428Z,17.65
2018-05-09T05:32:30.146Z,17.59
2018-05-09T05:33:30.438Z,17.56
2018-05-09T05:34:30.466Z,17.54
2018-05-09T05:35:30.495Z,17.65
2018-05-09T05:36:30.243Z,17.64
2018-05-09T05:37:30.529Z,17.59
2018-05-09T05:38:30.540Z,17.6
2018-05-09T05:39:30.306Z,17.67
2018-05-09T05:40:30.327Z,17.68
2018-05-09T05:41:30.629Z,17.64
2018-05-09T05:42:30.090Z,17.65
2018-05-09T05:43:30.462Z,17.68
2018-05-09T05:44:30.660Z,17.7
2018-05-09T05:45:30.660Z,17.68
2018-05-09T05:46:30.724Z,17.7
2018-05-09T05:47:30.476Z,17.8
2018-05-09T05:48:30.748Z,17.72
2018-05-09T05:49:30.498Z,17.79
2018-05-09T05:50:30.540Z,17.79
2018-05-09T05:51:30.550Z,17.76
2018-05-09T05:52:30.831Z,17.76
2018-05-09T05:53:30.579Z,17.72
2018-05-09T05:54:30.625Z,17.79
2018-05-09T05:55:30.919Z,17.8
2018-05-09T05:56:30.940Z,17.87
2018-05-09T05:57:30.926Z,17.85
2018-05-09T05:58:30.700Z,17.89
2018-05-09T05:59:30.435Z,17.83
2018-05-09T06:00:30.474Z,17.92
2018-05-09T06:01:31.014Z,17.97
2018-05-09T06:02:30.800Z,18.01
2018-05-09T06:03:30.791Z,17.98
2018-05-09T06:04:30.806Z,17.97
2018-05-09T06:05:30.572Z,18.07
2018-05-09T06:06:31.454Z,18.07
2018-05-09T06:07:31.149Z,18.03
2018-05-09T06:08:30.629Z,18.07
2018-05-09T06:09:30.933Z,18.16
2018-05-09T06:10:31.209Z,18.16
2018-05-09T06:11:30.953Z,18.15
2018-05-09T06:12:31.249Z,18.13
2018-05-09T06:13:31.272Z,18.15
2018-05-09T06:14:31.036Z,18.26
2018-05-09T06:15:31.040Z,18.23
2018-05-09T06:16:31.079Z,18.26
2018-05-09T06:17:31.373Z,18.33
2018-05-09T06:18:31.355Z,18.33
2018-05-09T06:19:31.401Z,18.33
2018-05-09T06:20:31.422Z,18.41
2018-05-09T06:21:31.418Z,18.41
2018-05-09T06:22:31.184Z,18.44
2018-05-09T06:23:31.466Z,18.52
2018-05-09T06:24:30.972Z,18.45
2018-05-09T06:25:31.511Z,18.49
2018-05-09T06:26:31.267Z,18.52
2018-05-09T06:27:31.284Z,18.62
2018-05-09T06:28:31.595Z,18.58
2018-05-09T06:29:31.603Z,18.62
2018-05-09T06:30:31.351Z,18.63
2018-05-09T06:31:31.104Z,18.68
2018-05-09T06:32:31.120Z,18.66
2018-05-09T06:33:31.685Z,18.75
2018-05-09T06:34:31.708Z,18.81
2018-05-09T06:35:31.728Z,18.83
2018-05-09T06:36:31.729Z,18.8
2018-05-09T06:37:31.748Z,18.86
2018-05-09T06:38:31.771Z,18.95
2018-05-09T06:39:31.793Z,18.86
2018-05-09T06:40:31.573Z,18.9
2018-05-09T06:41:31.606Z,18.92
2018-05-09T06:42:31.604Z,19.02
2018-05-09T06:43:31.907Z,19.02
2018-05-09T06:44:31.661Z,19
2018-05-09T06:45:31.383Z,19.09
2018-05-09T06:46:31.953Z,19.19
2018-05-09T06:47:31.696Z,19.19
2018-05-09T06:48:31.789Z,19.19
2018-05-09T06:49:32.006Z,19.26
2018-05-09T06:50:31.759Z,19.29
2018-05-09T06:51:31.789Z,19.31
2018-05-09T06:52:32.077Z,19.31
2018-05-09T06:53:32.122Z,19.4
2018-05-09T06:54:31.851Z,19.48
2018-05-09T06:55:32.159Z,19.47
2018-05-09T06:56:32.184Z,19.55
2018-05-09T06:57:31.935Z,19.56
2018-05-09T06:58:32.205Z,19.47
2018-05-09T06:59:32.250Z,19.56
2018-05-09T07:00:32.235Z,19.56
2018-05-09T07:01:31.719Z,19.62
2018-05-09T07:02:32.038Z,19.76
2018-05-09T07:03:32.318Z,19.74
2018-05-09T07:04:32.330Z,19.76
2018-05-09T07:05:32.363Z,19.88
2018-05-09T07:06:32.667Z,19.85
2018-05-09T07:07:31.859Z,19.89
2018-05-09T07:08:31.874Z,20.06
2018-05-09T07:09:32.455Z,20.02
2018-05-09T07:10:32.208Z,20.14
2018-05-09T07:11:31.934Z,20.13
2018-05-09T07:12:32.022Z,20.16
2018-05-09T07:13:32.344Z,20.18
2018-05-09T07:14:32.014Z,20.26
2018-05-09T07:15:32.553Z,20.39
2018-05-09T07:16:32.318Z,20.39
2018-05-09T07:17:32.632Z,20.43
2018-05-09T07:18:32.630Z,20.48
2018-05-09T07:19:32.397Z,20.48
2018-05-09T07:20:32.673Z,20.58
2018-05-09T07:21:32.695Z,20.62
2018-05-09T07:22:32.492Z,20.74
2018-05-09T07:23:32.754Z,20.81
2018-05-09T07:24:32.755Z,20.87
2018-05-09T07:25:32.509Z,20.93
2018-05-09T07:26:32.536Z,21.02
2018-05-09T07:27:32.819Z,20.99
2018-05-09T07:28:32.861Z,21.11
2018-05-09T07:29:32.876Z,21.22
2018-05-09T07:30:32.608Z,21.25
2018-05-09T07:31:32.921Z,21.35
2018-05-09T07:32:32.942Z,21.33
2018-05-09T07:33:32.423Z,21.36
2018-05-09T07:34:32.989Z,21.4
2018-05-09T07:35:33.220Z,21.46
2018-05-09T07:36:32.747Z,21.58
2018-05-09T07:37:32.777Z,21.73
2018-05-09T07:38:33.061Z,21.79
2018-05-09T07:39:32.551Z,21.8
2018-05-09T07:40:33.088Z,21.93
2018-05-09T07:41:32.868Z,21.99
2018-05-09T07:42:32.868Z,22
2018-05-09T07:43:33.176Z,22.11
2018-05-09T07:44:33.195Z,22.25
2018-05-09T07:45:32.944Z,22.26
2018-05-09T07:46:33.077Z,22.36
2018-05-09T07:47:33.459Z,22.47
2018-05-09T07:48:33.011Z,22.44
2018-05-09T07:49:33.319Z,22.51
2018-05-09T07:50:33.308Z,22.62
2018-05-09T07:51:33.081Z,22.69
2018-05-09T07:52:33.372Z,22.75
2018-05-09T07:53:33.385Z,22.84
2018-05-09T07:54:33.149Z,22.91
2018-05-09T07:55:33.316Z,22.98
2018-05-09T07:56:33.178Z,23.09
2018-05-09T07:57:33.466Z,23.28
2018-05-09T07:58:33.242Z,23.4
2018-05-09T07:59:33.566Z,23.39
2018-05-09T08:00:33.283Z,23.44
2018-05-09T08:01:33.320Z,23.55
2018-05-09T08:02:33.614Z,23.62
2018-05-09T08:03:33.619Z,23.68
2018-05-09T08:04:33.388Z,23.74
2018-05-09T08:05:33.685Z,23.77
2018-05-09T08:06:33.690Z,23.8
2018-05-09T08:07:33.707Z,23.8
2018-05-09T08:08:33.722Z,23.87
2018-05-09T08:09:33.475Z,23.86
2018-05-09T08:10:33.791Z,23.95
2018-05-09T08:11:33.784Z,24.06
2018-05-09T08:12:33.828Z,24.08
2018-05-09T08:13:33.575Z,24.13
2018-05-09T08:14:33.887Z,24.26
2018-05-09T08:15:33.634Z,24.28
2018-05-09T08:16:33.642Z,24.39
2018-05-09T08:17:33.936Z,24.29
2018-05-09T08:18:33.954Z,24.4
2018-05-09T08:19:33.979Z,24.4
2018-05-09T08:20:34.020Z,24.54
2018-05-09T08:21:33.757Z,24.6
2018-05-09T08:22:33.786Z,24.63
2018-05-09T08:23:34.058Z,24.66
2018-05-09T08:24:34.083Z,24.68
2018-05-09T08:25:33.864Z,24.77
2018-05-09T08:26:34.130Z,24.88
2018-05-09T08:27:34.150Z,24.96
2018-05-09T08:28:34.199Z,24.92
2018-05-09T08:29:34.210Z,25.07
2018-05-09T08:30:34.522Z,25.14
2018-05-09T08:31:33.997Z,25.28
2018-05-09T08:32:33.748Z,25.35
2018-05-09T08:33:34.314Z,25.32
2018-05-09T08:34:34.362Z,25.5
2018-05-09T08:35:34.377Z,25.53
2018-05-09T08:36:34.491Z,25.54
2018-05-09T08:37:34.490Z,25.6
2018-05-09T08:38:34.453Z,25.69
2018-05-09T08:39:34.459Z,25.68
2018-05-09T08:40:34.480Z,25.72
2018-05-09T08:41:34.241Z,25.83
2018-05-09T08:42:34.531Z,25.87
2018-05-09T08:43:35.086Z,25.98
2018-05-09T08:44:34.574Z,26.02
2018-05-09T08:45:34.579Z,26.1
2018-05-09T08:46:34.366Z,26.22
2018-05-09T08:47:34.662Z,26.31
2018-05-09T08:48:34.675Z,26.28
2018-05-09T08:49:34.427Z,26.38
2018-05-09T08:50:34.721Z,26.45
2018-05-09T08:51:34.198Z,26.53
2018-05-09T08:52:34.494Z,26.6
2018-05-09T08:53:34.812Z,26.62
2018-05-09T08:54:34.560Z,26.73
2018-05-09T08:55:35.058Z,26.8
2018-05-09T08:56:34.581Z,26.95
2018-05-09T08:57:35.357Z,26.95
2018-05-09T08:58:35.383Z,27.08
2018-05-09T08:59:35.461Z,27.15
2018-05-09T09:00:35.588Z,27.18
2018-05-09T09:01:35.551Z,27.29
2018-05-09T09:02:34.931Z,27.39
2018-05-09T09:03:35.617Z,27.47
2018-05-09T09:04:35.574Z,27.45
2018-05-09T09:05:35.971Z,27.52
2018-05-09T09:06:35.635Z,27.65
2018-05-09T09:07:35.124Z,27.7
2018-05-09T09:08:35.695Z,27.82
2018-05-09T09:09:35.673Z,27.89
2018-05-09T09:10:35.254Z,27.85
2018-05-09T09:11:35.245Z,28.04
2018-05-09T09:12:35.328Z,28
2018-05-09T09:13:35.686Z,28.01
2018-05-09T09:14:36.267Z,28.15
2018-05-09T09:15:36.025Z,28.19
2018-05-09T09:16:35.704Z,28.27
2018-05-09T09:17:35.735Z,28.33
2018-05-09T09:18:36.171Z,28.38
2018-05-09T09:19:35.907Z,28.47
2018-05-09T09:20:36.227Z,28.47
2018-05-09T09:21:35.517Z,28.63
2018-05-09T09:22:35.770Z,28.72
2018-05-09T09:23:36.016Z,28.76
2018-05-09T09:24:35.582Z,28.78
2018-05-09T09:25:36.523Z,28.91
2018-05-09T09:26:35.328Z,28.97
2018-05-09T09:27:36.519Z,29.07
2018-05-09T09:28:36.164Z,29.13
2018-05-09T09:29:35.703Z,29.27
2018-05-09T09:30:36.332Z,29.31
2018-05-09T09:31:36.245Z,29.38
2018-05-09T09:32:36.227Z,29.41
2018-05-09T09:33:36.372Z,29.59
2018-05-09T09:34:36.462Z,29.53
2018-05-09T09:35:36.800Z,29.56
2018-05-09T09:36:35.867Z,29.68
2018-05-09T09:37:36.348Z,29.72
2018-05-09T09:38:37.020Z,29.81
2018-05-09T09:39:36.995Z,29.84
2018-05-09T09:40:36.892Z,30.03
2018-05-09T09:41:36.905Z,30.05
2018-05-09T09:42:36.202Z,30.1
2018-05-09T09:43:36.376Z,30.12
2018-05-09T09:44:36.204Z,30.19
2018-05-09T09:45:36.458Z,30.15
2018-05-09T09:46:35.886Z,30.23
2018-05-09T09:47:36.169Z,30.27
2018-05-09T09:48:35.969Z,30.27
2018-05-09T09:49:36.310Z,30.3
2018-05-09T09:50:36.325Z,30.3
2018-05-09T09:51:36.287Z,30.31
2018-05-09T09:52:36.325Z,30.37
2018-05-09T09:53:36.339Z,30.37
2018-05-09T09:54:36.109Z,30.3
2018-05-09T09:55:36.426Z,30.34
2018-05-09T09:56:36.406Z,30.35
2018-05-09T09:57:36.465Z,30.37
2018-05-09T09:58:36.481Z,30.35
2018-05-09T09:59:36.231Z,30.3
2018-05-09T10:00:36.515Z,30.31
2018-05-09T10:01:36.718Z,30.35
2018-05-09T10:02:36.336Z,30.31
2018-05-09T10:03:36.609Z,30.27
2018-05-09T10:04:36.380Z,30.3
2018-05-09T10:05:36.403Z,30.39
2018-05-09T10:06:36.418Z,30.34
2018-05-09T10:07:36.710Z,30.27
2018-05-09T10:08:36.736Z,30.37
2018-05-09T10:09:36.791Z,30.39
2018-05-09T10:10:36.808Z,30.4
2018-05-09T10:11:36.934Z,30.5
2018-05-09T10:12:36.593Z,30.47
2018-05-09T10:13:36.623Z,30.5
2018-05-09T10:14:36.666Z,30.51
2018-05-09T10:15:36.958Z,30.59
2018-05-09T10:16:36.996Z,30.69
2018-05-09T10:17:37.014Z,30.69
2018-05-09T10:18:37.052Z,30.73
2018-05-09T10:19:37.046Z,30.72
2018-05-09T10:20:37.086Z,30.88
2018-05-09T10:21:37.121Z,30.88
2018-05-09T10:22:37.144Z,30.88
2018-05-09T10:23:37.179Z,30.85
2018-05-09T10:24:36.925Z,31.02
2018-05-09T10:25:36.965Z,30.97
2018-05-09T10:26:37.278Z,31.15
2018-05-09T10:27:37.308Z,30.97
2018-05-09T10:28:37.304Z,31.12
2018-05-09T10:29:37.334Z,31.09
2018-05-09T10:30:37.373Z,31.18
2018-05-09T10:31:36.942Z,31.25
2018-05-09T10:32:37.447Z,31.25
2018-05-09T10:33:37.190Z,31.36
2018-05-09T10:34:37.497Z,31.37
2018-05-09T10:35:37.237Z,31.33
2018-05-09T10:36:37.573Z,31.54
2018-05-09T10:37:37.615Z,31.54
2018-05-09T10:38:37.348Z,31.59
2018-05-09T10:39:37.644Z,31.62
2018-05-09T10:40:37.651Z,31.71
2018-05-09T10:41:37.140Z,31.71
2018-05-09T10:42:37.731Z,31.8
2018-05-09T10:43:37.761Z,31.78
2018-05-09T10:44:37.779Z,31.85
2018-05-09T10:45:37.286Z,31.9
2018-05-09T10:46:37.561Z,31.94
2018-05-09T10:47:37.772Z,31.94
2018-05-09T10:52:10.739Z,32.18
2018-05-09T10:52:40.984Z,32.18
2018-05-09T10:53:41.295Z,32.14
2018-05-09T10:54:41.595Z,32.16
2018-05-09T10:55:41.638Z,32.19
2018-05-09T10:56:41.648Z,32.21
2018-05-09T10:57:41.654Z,32.26
2018-05-09T10:58:41.445Z,32.33
2018-05-09T10:59:41.711Z,32.3
2018-05-09T11:00:41.761Z,32.3
2018-05-09T11:01:41.518Z,32.37
2018-05-09T11:02:41.544Z,32.33
2018-05-09T11:03:41.861Z,32.31
2018-05-09T11:04:41.906Z,32.36
2018-05-09T11:05:41.638Z,32.34
2018-05-09T11:06:41.945Z,32.3
2018-05-09T11:07:41.744Z,32.26
2018-05-09T11:08:41.753Z,32.33
2018-05-09T11:09:41.480Z,32.33
2018-05-09T11:10:42.063Z,32.3
2018-05-09T11:11:42.108Z,32.36
2018-05-09T11:12:42.132Z,32.4
2018-05-09T11:13:42.136Z,32.46
2018-05-09T11:14:42.163Z,32.48
2018-05-09T11:15:42.204Z,32.41
2018-05-09T11:16:42.227Z,32.46
2018-05-09T11:17:42.043Z,32.48
2018-05-09T11:18:41.751Z,32.56
2018-05-09T11:19:42.319Z,32.56
2018-05-09T11:20:42.375Z,32.63
2018-05-09T11:21:42.395Z,32.64
2018-05-09T11:22:42.159Z,32.68
2018-05-09T11:23:42.452Z,32.67
2018-05-09T11:24:42.248Z,32.68
2018-05-09T11:25:42.534Z,32.73
2018-05-09T11:26:42.134Z,32.85
2018-05-09T11:27:42.621Z,32.83
2018-05-09T11:28:42.321Z,32.96
2018-05-09T11:29:42.358Z,32.95
2018-05-09T11:30:42.401Z,33.09
2018-05-09T11:31:42.424Z,33.02
2018-05-09T11:32:42.489Z,33.15
2018-05-09T11:33:42.771Z,33.27
2018-05-09T11:34:42.523Z,33.32
2018-05-09T11:35:42.541Z,33.37
2018-05-09T11:36:42.846Z,33.45
2018-05-09T11:37:42.654Z,33.47
2018-05-09T11:38:42.896Z,33.52
2018-05-09T11:39:42.958Z,33.55
2018-05-09T11:40:42.422Z,33.57
2018-05-09T11:41:42.748Z,33.59
2018-05-09T11:42:43.057Z,33.61
2018-05-09T11:43:42.515Z,33.62
2018-05-09T11:44:43.077Z,33.62
2018-05-09T11:45:43.143Z,33.73
2018-05-09T11:46:43.157Z,33.74
2018-05-09T11:47:43.173Z,33.77
2018-05-09T11:48:43.220Z,33.84
2018-05-09T11:49:43.263Z,33.83
2018-05-09T11:50:43.014Z,33.86
2018-05-09T11:51:43.443Z,33.94
2018-05-09T11:52:43.355Z,33.92
2018-05-09T11:53:43.111Z,33.92
2018-05-09T11:54:43.414Z,33.96
2018-05-09T11:55:43.434Z,34.01
2018-05-09T11:56:43.451Z,33.98
2018-05-09T11:57:43.492Z,33.98
2018-05-09T11:58:43.508Z,34.02
2018-05-09T11:59:43.563Z,33.99
2018-05-09T12:00:43.059Z,34.03
2018-05-09T12:01:43.350Z,34.08
2018-05-09T12:02:43.766Z,34.08
2018-05-09T12:03:43.430Z,34.05
2018-05-09T12:04:43.716Z,34.16
2018-05-09T12:05:43.752Z,34.24
2018-05-09T12:06:43.767Z,34.17
2018-05-09T12:07:43.813Z,34.27
2018-05-09T12:08:43.840Z,34.25
2018-05-09T12:09:43.857Z,34.23
2018-05-09T12:10:44.489Z,34.3
2018-05-09T12:11:43.656Z,34.38
2018-05-09T12:12:44.014Z,34.42
2018-05-09T12:13:43.730Z,34.51
2018-05-09T12:14:44.032Z,34.52
2018-05-09T12:15:44.072Z,34.57
2018-05-09T12:16:44.099Z,34.58
2018-05-09T12:17:44.177Z,34.58
2018-05-09T12:18:44.159Z,34.6
2018-05-09T12:19:44.170Z,34.6
2018-05-09T12:20:44.222Z,34.6
2018-05-09T12:21:44.246Z,34.57
2018-05-09T12:22:44.005Z,34.55
2018-05-09T12:23:44.326Z,34.51
2018-05-09T12:24:44.116Z,34.48
2018-05-09T12:25:44.390Z,34.47
2018-05-09T12:26:44.139Z,34.52
2018-05-09T12:27:44.220Z,34.54
2018-05-09T12:28:44.465Z,34.54
2018-05-09T12:29:44.520Z,34.58
2018-05-09T12:30:44.248Z,34.57
2018-05-09T12:31:44.285Z,34.58
2018-05-09T12:32:44.315Z,34.6
2018-05-09T12:33:44.699Z,34.6
2018-05-09T12:34:44.657Z,34.6
2018-05-09T12:35:44.434Z,34.52
2018-05-09T12:36:44.444Z,34.67
2018-05-09T12:37:44.552Z,34.71
2018-05-09T12:38:44.801Z,34.7
2018-05-09T12:39:44.837Z,34.66
2018-05-09T12:40:44.589Z,34.73
2018-05-09T12:41:44.885Z,34.71
2018-05-09T12:42:44.639Z,34.78
2018-05-09T12:43:44.685Z,34.8
2018-05-09T12:44:44.981Z,34.88
2018-05-09T12:45:44.755Z,34.92
2018-05-09T12:46:45.043Z,34.99
2018-05-09T12:47:44.815Z,34.99
2018-05-09T12:48:45.508Z,35
2018-05-09T12:49:44.882Z,35.02
2018-05-09T12:50:45.180Z,35.14
2018-05-09T12:51:44.945Z,35.14
2018-05-09T12:52:45.255Z,35.08
2018-05-09T12:53:45.015Z,35.17
2018-05-09T12:54:45.420Z,35.29
2018-05-09T12:55:45.350Z,35.24
2018-05-09T12:56:45.388Z,35.22
2018-05-09T12:57:45.404Z,35.3
2018-05-09T12:58:45.432Z,35.27
2018-05-09T12:59:45.457Z,35.27
2018-05-09T13:00:45.508Z,35.31
2018-05-09T13:01:45.537Z,35.36
2018-05-09T13:02:45.292Z,35.26